Edgemont, South Dakota
Current Conditions -  °F | °C
As of 12:53 PM on Friday 24 Oct 2014 (Local Time) from KCUT Reporting Station
Clear Clear  
Wind Chill: 70°   Ceiling: Unl
Heat Index: 70°   Visibility: 10mi
Dew Point: 27°   Wind: 5mph
Humidity: 20%   Direction: NA
Pressure: 30.09"   Gusts: NA
Location:  43.3°N, 103.83°W
Report Text: KCUT 241853Z AUTO VRB04KT 10SM CLR 21/M03 A3009 RMK AO2 SLP135 T02111028
Loading
Personal Weather Stations






























Interactive Weather Map
Tropical Storm Tracking
New forecast layout! Learn more

10-Day Weather Forecast

Advertisements
Track Severe Weather on mobile